BLUO2: Blue River, Blue, OK

Data processed at Fri Feb 23 2018 21:46


All information presented herein is the property of the government of the United States of America and may be revised or deleted at any time without prior notice.
Dissemination of this information without the expressed written consent of the Public Affairs Office, Tulsa District U.S. Army Corps of Engineers is strictly prohibited.
These data are gathered electronically and, as presented, have not undergone any form of quality control. These data are not guaranteed to be valid or correct.
Go to home page.
Go to station list.

Downstream station:


Previous Day
Next Day
Current Day
    
SHEF ID:       BLUO2     Blue River near Blue, OK
STATION TYPE:  

               PRECIP     STAGE  RIV-FLOW  BAT-LOAD
                   in        ft       cfs      volt
              Ccp-Rev   Ccp-Rev   Ccp-Rev   Ccp-Rev
(US/Central)
02/23 00:00      0.00     13.07      1410     12.41
02/23 01:00      0.00     13.21      1440     12.41
02/23 02:00      0.00     13.29      1460     12.41
02/23 03:00      0.00     13.32      1470     12.09
02/23 04:00      0.00     13.29      1460     12.33
02/23 05:00      0.00     13.21      1440     12.33
02/23 06:00      0.00     13.06      1400     12.33
02/23 07:00      0.25     12.89      1360     12.33
02/23 08:00      0.08     12.66      1300     12.33
02/23 09:00      0.19     12.46      1250     12.33
02/23 10:00      0.04     12.28      1210     12.33
02/23 11:00      0.01     12.24      1200     12.41
02/23 12:00      0.01     12.30      1210     12.41
02/23 13:00      0.00     12.42      1240     12.97
02/23 14:00      0.00     12.73      1320     12.97
02/23 15:00      0.00     13.34      1480     12.97
02/23 16:00      0.00     14.27      1730     12.81
02/23 17:00      0.00     15.38      2040     12.65
02/23 18:00      0.01     16.52      2380     12.65
02/23 19:00      0.00     17.44      2660     12.57
02/23 20:00      ----     18.21      2910     12.49
02/23 21:00      ----      ----      ----      ----
02/23 22:00      ----      ----      ----      ----
02/23 23:00      ----      ----      ----      ----